London Corbin Airport Magee Field
KLOZ : now visible

Airfield :











YOU CAN JOIN US ON...

 
LOGIN :

Register | Disclaimer

   EN    FR    IT 

 









Legend :    VFR   Marginal VFR   IFR   Intensive IFR   Very Intensive IFR
Visi :
Ceiling :
>= 8 km
>= 3000ft
5 to 8 km
1000 to 3000 ft
1500m to 5 km
500 to 1000 ft
800 to 1500m
200 to 500 ft
< 800m
< 200 ft
Symbols :   Thunderstorms  Fog  Heavy snow  Heavy precipitations  Wind > 20 kt






- Airport Elevation : 1212 ft


KLOZ - London Corbin Magee Field

CURRENT METAR :
  • 171653Z AUTO VRB03KT 10SM CLR 10/00 A3001 RMK AO2 SLP166 T01000000 $

EXPIRED METARs :
  • 171553Z AUTO 00000KT 10SM CLR 07/00 A3004 RMK AO2 SLP178 T00720000 $
  • 171453Z AUTO 00000KT 10SM CLR 03/M01 A3006 RMK AO2 SLP186 T00331011 58009 $

TAF KLOZ
Valid from the 17 at 18:00 until the 18 at 18:00 UTC


171729Z 1718/1818 VRB03KT P6SM BKN200
FM181500 VRB04KT P6SM BKN100



MET'MAP, your aeronautical weather chart ! - Copyright ORBIFLY December 2007 - Disclaimer

ORBIFLY MET'MAP TEAM :

Programming & Development : Alexandra Zaïnal
Concept & Development : Baudouin d'Aumeries
Co-Development & Prog : Marc-Olivier Méhu
Technical & hardware support : Manuel Goepfert

Contact : metmap@orbifly.com




SOURCES & CREDITS :

   NOAA       Earth
Advisory